Time;durP1;ratioP1;P1;durP2;ratioP2;P2;SDS_P1;SDS_P2;PMS_P1;PMS_P2;Temp;Humidity;BMP_temperature;BMP_pressure;BME280_temperature;BME280_humidity;BME280_pressure;Samples;Min_cycle;Max_cycle;Signal;HPM_P1;HPM_P2
2023/12/05 00:00:33;;;;;;;13.43;10.33;;;3.70;99.90;;;;;;931470;151;27811;-83
2023/12/05 00:03:00;;;;;;;13.50;10.70;;;3.70;99.90;;;;;;931454;151;27486;-88
2023/12/05 00:05:27;;;;;;;11.53;9.73;;;3.70;99.90;;;;;;931734;151;27293;-88
2023/12/05 00:07:53;;;;;;;11.27;9.60;;;3.70;99.90;;;;;;927326;151;27401;-88
2023/12/05 00:10:20;;;;;;;10.40;9.27;;;3.70;99.90;;;;;;930878;151;27384;-83
2023/12/05 00:12:46;;;;;;;11.67;9.73;;;3.70;99.90;;;;;;943703;149;27728;-88
2023/12/05 00:15:13;;;;;;;12.00;9.70;;;3.60;99.90;;;;;;926908;151;27311;-87
2023/12/05 00:17:40;;;;;;;12.90;10.23;;;3.60;99.90;;;;;;944194;149;27437;-88
2023/12/05 00:20:07;;;;;;;11.33;9.70;;;3.60;99.90;;;;;;939185;149;27309;-87
2023/12/05 00:22:33;;;;;;;11.67;10.00;;;3.60;99.90;;;;;;939388;149;27351;-83
2023/12/05 00:24:59;;;;;;;11.10;9.30;;;3.60;99.90;;;;;;936171;149;27499;-85
2023/12/05 00:27:26;;;;;;;10.87;9.73;;;3.70;99.90;;;;;;930935;150;27807;-87
2023/12/05 00:29:53;;;;;;;12.63;9.40;;;3.70;99.90;;;;;;914836;152;27319;-86
2023/12/05 00:32:19;;;;;;;12.13;9.77;;;3.70;99.90;;;;;;931404;150;27427;-83
2023/12/05 00:34:46;;;;;;;12.03;9.63;;;3.70;99.90;;;;;;912600;154;27779;-86
2023/12/05 00:37:12;;;;;;;13.33;9.80;;;3.70;99.90;;;;;;911875;153;28205;-88
2023/12/05 00:39:39;;;;;;;12.27;10.27;;;3.70;99.90;;;;;;931471;149;27352;-87
2023/12/05 00:42:05;;;;;;;13.27;10.40;;;3.70;99.90;;;;;;931342;150;27449;-83
2023/12/05 00:44:32;;;;;;;12.67;10.17;;;3.70;99.90;;;;;;932270;150;27374;-88
2023/12/05 00:47:00;;;;;;;12.23;10.63;;;3.70;99.90;;;;;;932116;149;27311;-87
2023/12/05 00:49:25;;;;;;;11.60;10.30;;;3.70;99.90;;;;;;929416;150;27270;-85
2023/12/05 00:51:52;;;;;;;13.30;9.90;;;3.70;99.90;;;;;;919797;152;27271;-84
2023/12/05 00:54:18;;;;;;;14.07;10.90;;;3.80;99.90;;;;;;915654;152;27399;-82
2023/12/05 00:56:45;;;;;;;12.20;10.47;;;3.80;99.90;;;;;;930191;149;27527;-84
2023/12/05 00:59:12;;;;;;;12.63;10.30;;;3.80;99.90;;;;;;930220;149;27317;-84
2023/12/05 01:01:38;;;;;;;13.83;11.40;;;3.80;99.90;;;;;;931162;150;27450;-83
2023/12/05 01:04:05;;;;;;;13.67;10.60;;;3.80;99.90;;;;;;911539;153;27386;-83
2023/12/05 01:06:31;;;;;;;13.00;10.50;;;3.80;99.90;;;;;;931263;151;27276;-84
2023/12/05 01:08:58;;;;;;;14.30;11.50;;;3.80;99.90;;;;;;931520;151;27423;-84
2023/12/05 01:11:24;;;;;;;13.90;11.43;;;3.80;99.90;;;;;;931484;151;27358;-83
2023/12/05 01:13:51;;;;;;;14.50;11.70;;;3.80;99.90;;;;;;930194;151;27381;-84
2023/12/05 01:16:18;;;;;;;14.17;11.37;;;3.80;99.90;;;;;;930956;151;28181;-82
2023/12/05 01:18:44;;;;;;;12.60;11.30;;;3.80;99.90;;;;;;930862;151;27326;-84
2023/12/05 01:21:11;;;;;;;13.83;11.40;;;3.80;99.90;;;;;;930857;151;27331;-81
2023/12/05 01:23:37;;;;;;;14.73;11.90;;;3.90;99.90;;;;;;931962;151;27460;-83
2023/12/05 01:26:04;;;;;;;12.67;10.90;;;3.90;99.90;;;;;;930413;151;27424;-87
2023/12/05 01:28:31;;;;;;;12.30;10.83;;;3.90;99.90;;;;;;930644;151;27463;-88
2023/12/05 01:30:57;;;;;;;14.13;11.87;;;3.90;99.90;;;;;;930551;151;27345;-87
2023/12/05 01:33:24;;;;;;;12.63;10.87;;;3.90;99.90;;;;;;931248;151;27310;-85
2023/12/05 01:35:50;;;;;;;14.67;11.17;;;3.90;99.90;;;;;;931304;151;27760;-86
2023/12/05 01:38:18;;;;;;;11.60;9.87;;;3.90;99.90;;;;;;931316;151;27385;-86
2023/12/05 01:40:44;;;;;;;12.83;11.20;;;3.90;99.90;;;;;;930861;151;27310;-87
2023/12/05 01:43:10;;;;;;;14.73;11.50;;;3.90;99.90;;;;;;931164;151;27432;-87
2023/12/05 01:45:37;;;;;;;16.10;11.83;;;3.90;99.90;;;;;;930770;151;27318;-84
2023/12/05 01:48:03;;;;;;;13.70;10.83;;;4.00;99.90;;;;;;929505;151;27546;-87
2023/12/05 01:50:30;;;;;;;15.33;11.97;;;4.00;99.90;;;;;;930139;151;27319;-85
2023/12/05 01:52:56;;;;;;;13.03;11.63;;;4.00;99.90;;;;;;930597;151;27802;-86
2023/12/05 01:55:24;;;;;;;13.67;11.60;;;4.00;99.90;;;;;;932156;151;27335;-86
2023/12/05 01:57:50;;;;;;;16.53;12.80;;;4.00;99.90;;;;;;931069;151;27409;-88
2023/12/05 02:00:16;;;;;;;15.70;12.03;;;4.00;99.90;;;;;;931361;151;27382;-87
2023/12/05 02:02:43;;;;;;;14.50;11.40;;;4.00;99.90;;;;;;931006;151;27365;-81
2023/12/05 02:05:09;;;;;;;12.93;11.43;;;4.00;99.90;;;;;;931839;151;27448;-81
2023/12/05 02:07:36;;;;;;;14.83;11.80;;;4.00;99.90;;;;;;931584;151;27374;-81
2023/12/05 02:10:04;;;;;;;13.47;11.17;;;4.10;99.90;;;;;;931789;150;27381;-80
2023/12/05 02:12:29;;;;;;;14.43;11.43;;;4.10;99.90;;;;;;931884;151;27346;-81
2023/12/05 02:14:56;;;;;;;14.20;11.67;;;4.10;99.90;;;;;;930278;151;27354;-80
2023/12/05 02:17:44;;;;;;;12.13;10.83;;;4.10;99.90;;;;;;931598;151;27318;-80
2023/12/05 02:20:28;;;;;;;12.33;10.67;;;4.10;99.90;;;;;;918533;151;27398;-80
2023/12/05 02:22:55;;;;;;;12.80;10.80;;;4.10;99.90;;;;;;930324;151;27419;-81
2023/12/05 02:25:24;;;;;;;12.57;11.20;;;4.10;99.90;;;;;;930332;151;27450;-81
2023/12/05 02:27:51;;;;;;;14.23;10.47;;;4.10;99.90;;;;;;927849;151;27335;-81
2023/12/05 02:30:18;;;;;;;13.43;11.53;;;4.20;99.90;;;;;;930069;151;27563;-80
2023/12/05 02:32:44;;;;;;;14.83;11.03;;;4.10;99.90;;;;;;930667;151;27386;-84
2023/12/05 02:35:13;;;;;;;13.00;11.67;;;4.20;99.90;;;;;;931220;151;27317;-83
2023/12/05 02:37:43;;;;;;;13.07;11.30;;;4.20;99.90;;;;;;931139;151;27414;-83
2023/12/05 02:40:18;;;;;;;13.13;10.93;;;4.20;99.90;;;;;;929716;151;27315;-83
2023/12/05 02:42:45;;;;;;;12.83;11.50;;;4.20;99.90;;;;;;930899;151;27362;-83
2023/12/05 02:45:17;;;;;;;13.63;11.43;;;4.30;99.90;;;;;;931548;151;27456;-83
2023/12/05 02:47:43;;;;;;;12.67;11.10;;;4.30;99.90;;;;;;930905;151;27350;-84
2023/12/05 02:50:10;;;;;;;13.23;10.73;;;4.30;99.90;;;;;;931424;151;27337;-83
2023/12/05 02:52:36;;;;;;;11.90;10.57;;;4.30;99.90;;;;;;930332;151;27421;-83
2023/12/05 02:55:03;;;;;;;15.17;11.47;;;4.30;99.90;;;;;;931381;151;27389;-84
2023/12/05 02:57:30;;;;;;;12.87;10.77;;;4.40;99.90;;;;;;930592;151;27350;-84
2023/12/05 02:59:56;;;;;;;13.23;10.97;;;4.40;99.90;;;;;;930154;151;27735;-83
2023/12/05 03:02:23;;;;;;;14.20;11.90;;;4.40;99.90;;;;;;930057;151;27310;-82
2023/12/05 03:04:49;;;;;;;14.63;12.17;;;4.40;99.90;;;;;;931635;151;27534;-82
2023/12/05 03:07:16;;;;;;;12.80;11.40;;;4.40;99.90;;;;;;931607;151;27803;-83
2023/12/05 03:09:43;;;;;;;14.70;11.93;;;4.40;99.90;;;;;;930725;151;27443;-84
2023/12/05 03:12:09;;;;;;;14.20;12.53;;;4.50;99.90;;;;;;931206;151;27353;-83
2023/12/05 03:14:36;;;;;;;14.47;11.77;;;4.50;99.90;;;;;;931336;151;27918;-82
2023/12/05 03:17:02;;;;;;;13.33;11.93;;;4.40;99.90;;;;;;931213;151;27462;-82
2023/12/05 03:19:29;;;;;;;16.03;12.43;;;4.50;99.90;;;;;;931462;151;28451;-84
2023/12/05 03:21:55;;;;;;;14.50;12.03;;;4.50;99.90;;;;;;931700;151;27356;-85
2023/12/05 03:24:22;;;;;;;14.87;12.47;;;4.50;99.90;;;;;;930662;151;27406;-85
2023/12/05 03:26:49;;;;;;;13.77;11.93;;;4.60;99.90;;;;;;928177;151;27440;-85
2023/12/05 03:29:15;;;;;;;15.10;12.30;;;4.60;99.90;;;;;;922622;153;27442;-86
2023/12/05 03:31:42;;;;;;;15.47;11.37;;;4.60;99.90;;;;;;924311;153;27378;-86
2023/12/05 03:34:08;;;;;;;14.00;11.67;;;4.60;99.90;;;;;;925188;153;27339;-85
2023/12/05 03:36:35;;;;;;;14.27;11.80;;;4.60;99.90;;;;;;923637;153;27497;-85
2023/12/05 03:39:02;;;;;;;14.50;12.40;;;4.60;99.90;;;;;;923398;153;27367;-85
2023/12/05 03:41:28;;;;;;;13.47;11.93;;;4.60;99.90;;;;;;923151;153;27430;-85
2023/12/05 03:43:55;;;;;;;13.80;11.07;;;4.70;99.90;;;;;;923532;153;27329;-81
2023/12/05 03:46:21;;;;;;;13.57;11.00;;;4.70;99.90;;;;;;922143;151;27294;-81
2023/12/05 03:48:48;;;;;;;12.60;10.90;;;4.70;99.90;;;;;;923694;153;27382;-79
2023/12/05 03:51:15;;;;;;;12.93;10.40;;;4.70;99.90;;;;;;924933;153;27745;-79
2023/12/05 03:53:41;;;;;;;12.70;10.70;;;4.70;99.90;;;;;;924360;153;27451;-79
2023/12/05 03:56:08;;;;;;;12.27;10.67;;;4.70;99.90;;;;;;921303;153;27272;-79
2023/12/05 03:58:34;;;;;;;12.23;10.93;;;4.80;99.90;;;;;;924686;153;27432;-81
2023/12/05 04:01:01;;;;;;;12.80;10.90;;;4.80;99.90;;;;;;924104;153;27465;-79
2023/12/05 04:03:27;;;;;;;12.70;11.27;;;4.80;99.90;;;;;;923693;153;27287;-79
2023/12/05 04:08:27;;;;;;;13.17;11.07;;;4.90;99.90;;;;;;974431;144;36782;-80
2023/12/05 04:10:54;;;;;;;15.30;11.57;;;4.90;99.90;;;;;;961903;147;27335;-82
2023/12/05 04:13:20;;;;;;;12.53;10.70;;;5.00;99.90;;;;;;961370;147;27318;-79
2023/12/05 04:15:47;;;;;;;14.10;11.13;;;5.00;99.90;;;;;;960889;147;27283;-80
2023/12/05 04:18:13;;;;;;;13.00;10.93;;;5.00;99.90;;;;;;961496;147;27351;-80
2023/12/05 04:20:40;;;;;;;11.67;10.03;;;5.00;99.90;;;;;;961101;147;27306;-82
2023/12/05 04:23:07;;;;;;;14.33;11.47;;;5.10;99.90;;;;;;960272;147;27364;-83
2023/12/05 04:25:33;;;;;;;12.77;10.60;;;5.10;99.90;;;;;;949059;147;27425;-83
2023/12/05 04:28:00;;;;;;;11.90;10.23;;;5.10;99.90;;;;;;944806;149;27414;-83
2023/12/05 04:30:26;;;;;;;13.23;11.43;;;5.20;99.90;;;;;;944866;149;27414;-83
2023/12/05 04:32:53;;;;;;;13.10;10.63;;;5.20;99.90;;;;;;944973;149;27458;-83
2023/12/05 04:35:20;;;;;;;13.23;11.37;;;5.20;99.90;;;;;;944630;149;27312;-83
2023/12/05 04:37:46;;;;;;;11.70;10.50;;;5.20;99.90;;;;;;944428;149;27284;-83
2023/12/05 04:40:13;;;;;;;11.87;10.63;;;5.30;99.90;;;;;;945791;148;27329;-83
2023/12/05 04:42:39;;;;;;;13.13;11.30;;;5.30;99.90;;;;;;944857;149;27343;-83
2023/12/05 04:45:07;;;;;;;11.67;10.10;;;5.30;99.90;;;;;;945213;149;28839;-83
2023/12/05 04:47:33;;;;;;;11.13;9.73;;;5.40;99.90;;;;;;944464;149;27281;-82
2023/12/05 04:49:59;;;;;;;11.23;10.03;;;5.40;99.90;;;;;;945135;149;27355;-82
2023/12/05 04:52:26;;;;;;;13.20;10.63;;;5.40;99.90;;;;;;945325;149;27438;-83
2023/12/05 04:54:52;;;;;;;11.63;9.80;;;5.40;99.90;;;;;;944881;149;27443;-83
2023/12/05 04:57:19;;;;;;;13.03;10.73;;;5.50;99.90;;;;;;944636;149;27313;-82
2023/12/05 04:59:46;;;;;;;12.10;10.47;;;5.50;99.90;;;;;;945077;149;27402;-83
2023/12/05 05:02:12;;;;;;;11.67;10.07;;;5.50;99.90;;;;;;944516;149;27261;-83
2023/12/05 05:04:39;;;;;;;13.87;10.50;;;5.50;99.90;;;;;;944948;149;27355;-82
2023/12/05 05:07:05;;;;;;;13.03;10.47;;;5.50;99.90;;;;;;946621;148;27343;-82
2023/12/05 05:09:32;;;;;;;12.90;10.77;;;5.60;99.90;;;;;;941304;150;27430;-83
2023/12/05 05:11:59;;;;;;;12.33;11.03;;;5.60;99.90;;;;;;934732;151;27294;-82
2023/12/05 05:14:25;;;;;;;13.80;11.17;;;5.60;99.90;;;;;;958901;147;27431;-82
2023/12/05 05:16:52;;;;;;;14.50;11.73;;;5.60;99.90;;;;;;958396;147;27305;-83
2023/12/05 05:19:18;;;;;;;13.33;11.20;;;5.60;99.90;;;;;;951370;148;27247;-83
2023/12/05 05:21:45;;;;;;;12.97;11.40;;;5.60;99.90;;;;;;951184;148;27416;-83
2023/12/05 05:24:11;;;;;;;14.70;11.10;;;5.60;99.90;;;;;;951919;148;27480;-83
2023/12/05 05:26:38;;;;;;;14.37;11.97;;;5.60;99.90;;;;;;951423;148;27431;-83
2023/12/05 05:29:05;;;;;;;14.57;10.83;;;5.60;99.90;;;;;;951799;148;27307;-83
2023/12/05 05:31:31;;;;;;;13.30;11.50;;;5.60;99.90;;;;;;951513;148;27297;-82
2023/12/05 05:33:58;;;;;;;13.67;11.33;;;5.70;99.90;;;;;;951671;148;27353;-80
2023/12/05 05:36:24;;;;;;;12.00;10.70;;;5.70;99.90;;;;;;941104;150;27419;-79
2023/12/05 05:38:51;;;;;;;12.03;10.53;;;5.70;99.90;;;;;;957444;148;27323;-79
2023/12/05 05:41:18;;;;;;;13.00;10.67;;;5.70;99.90;;;;;;956496;148;27339;-79
2023/12/05 05:43:44;;;;;;;12.00;10.73;;;5.70;99.90;;;;;;940082;150;27371;-80
2023/12/05 05:46:11;;;;;;;12.33;11.03;;;5.70;99.90;;;;;;951519;148;27785;-79
2023/12/05 05:48:37;;;;;;;12.90;11.10;;;5.70;99.90;;;;;;951532;148;27316;-79
2023/12/05 05:51:04;;;;;;;12.73;10.90;;;5.70;99.90;;;;;;927649;150;27400;-81
2023/12/05 05:53:31;;;;;;;12.90;11.00;;;5.70;99.90;;;;;;954029;147;27458;-82
2023/12/05 05:56:00;;;;;;;11.47;9.67;;;5.80;99.90;;;;;;957688;147;27817;-79
2023/12/05 05:58:27;;;;;;;12.47;11.17;;;5.80;99.90;;;;;;957318;147;27383;-80
2023/12/05 06:00:53;;;;;;;12.10;10.77;;;5.80;99.90;;;;;;956828;147;27392;-79
2023/12/05 06:03:20;;;;;;;11.30;10.10;;;5.80;99.90;;;;;;958442;147;27795;-80
2023/12/05 06:05:46;;;;;;;12.23;10.60;;;5.80;99.90;;;;;;941981;150;27396;-88
2023/12/05 06:08:13;;;;;;;12.13;10.83;;;5.80;99.90;;;;;;955044;147;27890;-85
2023/12/05 06:10:40;;;;;;;13.50;10.80;;;5.80;99.90;;;;;;950985;148;27337;-87
2023/12/05 06:13:06;;;;;;;11.33;10.13;;;5.90;99.90;;;;;;951471;148;27288;-86
2023/12/05 06:15:33;;;;;;;12.40;10.80;;;5.90;99.90;;;;;;950893;148;27409;-84
2023/12/05 06:17:59;;;;;;;12.93;11.03;;;5.90;99.90;;;;;;951534;148;27353;-87
2023/12/05 06:20:26;;;;;;;12.37;10.00;;;5.90;99.90;;;;;;948100;148;27291;-88
2023/12/05 06:22:53;;;;;;;10.70;9.47;;;5.90;99.90;;;;;;934515;151;27263;-87
2023/12/05 06:25:19;;;;;;;12.07;9.90;;;5.90;99.90;;;;;;951598;148;27763;-83
2023/12/05 06:27:46;;;;;;;12.63;11.03;;;5.90;99.90;;;;;;948024;148;27419;-86
2023/12/05 06:30:12;;;;;;;10.97;9.83;;;6.00;99.90;;;;;;947966;148;27430;-88
2023/12/05 06:32:39;;;;;;;12.80;10.43;;;5.90;99.90;;;;;;946619;148;27312;-87
2023/12/05 06:35:05;;;;;;;11.43;10.17;;;6.00;99.90;;;;;;938929;151;27286;-86
2023/12/05 06:37:32;;;;;;;11.97;9.43;;;6.00;99.90;;;;;;951394;148;27424;-82
2023/12/05 06:39:59;;;;;;;11.90;10.27;;;6.00;99.90;;;;;;951695;148;27330;-87
2023/12/05 06:42:26;;;;;;;11.60;10.30;;;6.00;99.90;;;;;;934808;151;27400;-88
2023/12/05 06:44:52;;;;;;;10.87;9.37;;;6.10;99.90;;;;;;951247;148;27399;-81
2023/12/05 06:47:18;;;;;;;11.00;9.87;;;6.10;99.90;;;;;;947961;148;27375;-81
2023/12/05 06:49:47;;;;;;;12.13;10.07;;;6.10;99.90;;;;;;947212;149;27327;-81
2023/12/05 06:52:12;;;;;;;11.67;9.67;;;6.10;99.90;;;;;;937435;151;27930;-81
2023/12/05 06:54:38;;;;;;;11.60;10.40;;;6.10;99.90;;;;;;950872;148;27307;-83
2023/12/05 06:57:05;;;;;;;11.47;9.67;;;6.10;99.90;;;;;;951136;148;27953;-81
2023/12/05 06:59:31;;;;;;;11.50;9.70;;;6.10;99.90;;;;;;950654;148;27699;-81
2023/12/05 07:01:58;;;;;;;11.70;9.47;;;6.10;99.90;;;;;;950955;148;27340;-81
2023/12/05 07:04:25;;;;;;;11.40;10.20;;;6.10;99.90;;;;;;950755;148;27316;-81
2023/12/05 07:06:51;;;;;;;12.33;10.10;;;6.10;99.90;;;;;;922056;151;27395;-81
2023/12/05 07:09:18;;;;;;;11.67;9.27;;;6.10;99.90;;;;;;937571;149;27474;-81
2023/12/05 07:11:44;;;;;;;13.10;9.40;;;6.10;99.90;;;;;;938656;150;27373;-81
2023/12/05 07:14:13;;;;;;;11.40;8.97;;;6.10;99.90;;;;;;939010;149;27344;-84
2023/12/05 07:16:38;;;;;;;11.37;10.17;;;6.10;99.90;;;;;;937821;149;27348;-85
2023/12/05 07:19:04;;;;;;;10.13;9.10;;;6.20;99.90;;;;;;940319;149;27320;-85
2023/12/05 07:21:31;;;;;;;11.93;9.03;;;6.20;99.90;;;;;;938270;149;27411;-83
2023/12/05 07:23:57;;;;;;;10.03;8.83;;;6.20;99.90;;;;;;937404;149;27420;-85
2023/12/05 07:26:24;;;;;;;9.80;8.73;;;6.20;99.90;;;;;;938449;149;27431;-85
2023/12/05 07:28:50;;;;;;;11.33;9.43;;;6.20;99.90;;;;;;938693;150;27403;-83
2023/12/05 07:31:17;;;;;;;9.93;8.77;;;6.30;99.90;;;;;;938628;149;27348;-85
2023/12/05 07:33:44;;;;;;;10.43;8.83;;;6.30;99.90;;;;;;939170;149;27265;-85
2023/12/05 07:36:10;;;;;;;10.10;8.93;;;6.30;99.90;;;;;;932341;150;28506;-84
2023/12/05 07:38:37;;;;;;;10.83;9.23;;;6.40;99.90;;;;;;919327;151;27435;-83
2023/12/05 07:41:03;;;;;;;13.67;9.40;;;6.40;99.90;;;;;;937498;149;27467;-83
2023/12/05 07:43:30;;;;;;;11.47;9.30;;;6.40;99.90;;;;;;937127;149;27339;-85
2023/12/05 07:45:57;;;;;;;11.10;9.30;;;6.50;99.90;;;;;;938890;149;27283;-85
2023/12/05 07:48:23;;;;;;;11.13;8.63;;;6.50;99.90;;;;;;935829;149;27459;-84
2023/12/05 07:50:50;;;;;;;9.87;8.50;;;6.50;99.90;;;;;;932005;152;27387;-82
2023/12/05 07:53:16;;;;;;;9.83;8.50;;;6.50;99.90;;;;;;931144;151;27399;-84
2023/12/05 07:55:43;;;;;;;9.00;8.10;;;6.60;99.90;;;;;;930639;151;27420;-81
2023/12/05 07:58:10;;;;;;;9.53;7.53;;;6.60;99.90;;;;;;930633;151;27758;-81
2023/12/05 08:00:39;;;;;;;9.57;8.27;;;6.60;99.90;;;;;;929201;151;27323;-81
2023/12/05 08:03:03;;;;;;;11.07;8.47;;;6.60;99.90;;;;;;936905;149;27373;-81
2023/12/05 08:05:29;;;;;;;9.17;7.83;;;6.60;99.90;;;;;;932090;152;27779;-81
2023/12/05 08:07:56;;;;;;;9.30;8.40;;;6.70;99.90;;;;;;930805;151;27394;-81
2023/12/05 08:10:23;;;;;;;9.30;8.37;;;6.70;99.90;;;;;;941861;149;27393;-81
2023/12/05 08:12:49;;;;;;;10.50;8.57;;;6.70;99.90;;;;;;939996;150;27403;-81
2023/12/05 08:15:16;;;;;;;10.40;7.83;;;6.80;99.90;;;;;;937204;151;27373;-81
2023/12/05 08:17:42;;;;;;;9.93;8.27;;;6.80;99.90;;;;;;926588;153;27306;-81
2023/12/05 08:20:09;;;;;;;8.20;7.37;;;6.80;99.90;;;;;;935378;151;27408;-81
2023/12/05 08:22:35;;;;;;;8.60;7.70;;;6.80;99.90;;;;;;937085;150;27392;-81
2023/12/05 08:25:02;;;;;;;10.07;7.80;;;6.90;99.90;;;;;;934914;151;27954;-81
2023/12/05 08:27:29;;;;;;;8.70;6.67;;;6.90;99.90;;;;;;941250;149;27484;-81
2023/12/05 08:29:55;;;;;;;7.33;6.47;;;6.90;99.90;;;;;;937480;149;27459;-82
2023/12/05 08:32:22;;;;;;;8.37;6.23;;;6.90;99.90;;;;;;911507;152;27365;-82
2023/12/05 08:34:49;;;;;;;8.47;6.57;;;7.00;99.90;;;;;;940646;149;27288;-82
2023/12/05 08:37:15;;;;;;;7.63;6.03;;;7.00;99.90;;;;;;910367;152;27403;-81
2023/12/05 08:39:42;;;;;;;6.73;6.10;;;7.00;99.90;;;;;;939858;149;28068;-82
2023/12/05 08:42:08;;;;;;;6.80;6.13;;;7.00;99.90;;;;;;940144;149;27421;-82
2023/12/05 08:44:35;;;;;;;7.60;6.80;;;7.10;99.90;;;;;;940725;149;27296;-82
2023/12/05 08:47:01;;;;;;;7.57;6.00;;;7.10;99.90;;;;;;940481;149;27283;-82
2023/12/05 08:49:28;;;;;;;8.63;6.27;;;7.10;99.90;;;;;;943664;149;27484;-82
2023/12/05 08:51:55;;;;;;;7.27;6.57;;;7.20;99.90;;;;;;925187;153;27380;-82
2023/12/05 08:54:21;;;;;;;7.50;6.67;;;7.20;99.90;;;;;;940904;149;27397;-82
2023/12/05 08:56:48;;;;;;;8.07;6.50;;;7.30;99.90;;;;;;925393;151;27348;-82
2023/12/05 08:59:14;;;;;;;7.47;6.67;;;7.30;99.90;;;;;;923494;152;27327;-81
2023/12/05 09:01:41;;;;;;;7.17;6.47;;;7.40;99.90;;;;;;925129;151;27413;-81
2023/12/05 09:04:07;;;;;;;6.33;5.37;;;7.40;99.90;;;;;;910776;152;27363;-82
2023/12/05 09:06:34;;;;;;;5.87;5.27;;;7.50;99.90;;;;;;910986;152;27325;-83
2023/12/05 09:09:01;;;;;;;6.40;5.80;;;7.50;99.90;;;;;;941780;149;27385;-83
2023/12/05 09:11:27;;;;;;;6.23;5.40;;;7.60;99.90;;;;;;945851;148;28232;-83
2023/12/05 09:13:54;;;;;;;7.40;6.00;;;7.70;99.90;;;;;;946576;150;27423;-83
2023/12/05 09:16:20;;;;;;;7.17;6.40;;;7.70;99.90;;;;;;944795;148;27282;-83
2023/12/05 09:18:47;;;;;;;7.10;6.40;;;7.80;99.90;;;;;;946689;150;27296;-83
2023/12/05 09:21:13;;;;;;;8.17;6.10;;;7.80;99.90;;;;;;946359;150;27381;-82
2023/12/05 09:23:40;;;;;;;6.17;5.57;;;7.90;99.90;;;;;;946477;150;27360;-83
2023/12/05 09:26:07;;;;;;;6.50;5.90;;;7.90;99.90;;;;;;946542;150;27340;-84
2023/12/05 09:28:34;;;;;;;6.97;5.97;;;8.00;99.90;;;;;;946323;150;27383;-84
2023/12/05 09:31:00;;;;;;;8.00;6.70;;;8.00;99.90;;;;;;946832;149;27742;-83
2023/12/05 09:33:26;;;;;;;8.13;6.13;;;8.10;99.90;;;;;;946815;150;27358;-84
2023/12/05 09:35:53;;;;;;;7.63;5.70;;;8.20;99.90;;;;;;946363;150;28532;-82
2023/12/05 09:38:20;;;;;;;6.33;5.73;;;8.20;99.90;;;;;;931908;151;27323;-82
2023/12/05 09:40:46;;;;;;;6.67;6.00;;;8.30;99.90;;;;;;931506;151;27318;-81
2023/12/05 09:43:13;;;;;;;6.97;5.80;;;8.30;99.90;;;;;;932001;151;27350;-82
2023/12/05 09:45:43;;;;;;;7.17;5.57;;;8.40;99.90;;;;;;940065;150;27332;-82
2023/12/05 09:48:09;;;;;;;6.70;5.93;;;8.40;99.90;;;;;;930789;151;27308;-82
2023/12/05 09:50:38;;;;;;;6.60;5.60;;;8.50;99.90;;;;;;914435;155;27360;-82
2023/12/05 09:53:05;;;;;;;6.03;5.43;;;8.50;99.90;;;;;;946250;150;27411;-81
2023/12/05 09:55:31;;;;;;;6.73;4.77;;;8.50;99.90;;;;;;946195;150;27458;-82
2023/12/05 09:57:58;;;;;;;5.87;5.27;;;8.60;99.90;;;;;;946211;150;27425;-82
2023/12/05 10:00:25;;;;;;;6.20;5.53;;;8.60;99.90;;;;;;944840;149;27242;-82
2023/12/05 10:02:51;;;;;;;5.67;5.07;;;8.60;99.90;;;;;;945590;149;27315;-81
2023/12/05 10:05:18;;;;;;;6.23;5.20;;;8.60;99.90;;;;;;938189;149;27461;-82
2023/12/05 10:07:44;;;;;;;6.33;5.30;;;8.60;99.90;;;;;;933468;152;27427;-82
2023/12/05 10:10:11;;;;;;;7.53;4.80;;;8.70;99.90;;;;;;946593;149;27292;-81
2023/12/05 10:12:37;;;;;;;5.03;4.53;;;8.70;99.90;;;;;;950411;148;27308;-82
2023/12/05 10:15:04;;;;;;;5.87;4.57;;;8.70;99.90;;;;;;950693;148;27331;-82
2023/12/05 10:17:33;;;;;;;5.27;4.63;;;8.80;99.90;;;;;;951147;148;27363;-81
2023/12/05 10:19:57;;;;;;;4.87;4.47;;;8.80;99.90;;;;;;950208;148;28576;-82
2023/12/05 10:22:24;;;;;;;3.93;3.60;;;8.90;99.90;;;;;;949979;148;27384;-82
2023/12/05 10:24:50;;;;;;;4.63;3.97;;;8.90;99.90;;;;;;951031;148;27371;-82
2023/12/05 10:27:17;;;;;;;4.30;3.90;;;9.00;99.90;;;;;;950309;148;27441;-82
2023/12/05 10:29:44;;;;;;;4.97;3.47;;;9.00;99.90;;;;;;952497;148;27338;-82
2023/12/05 10:32:10;;;;;;;3.10;2.67;;;9.10;99.90;;;;;;951772;148;27387;-82
2023/12/05 10:34:49;;;;;;;2.50;2.30;;;9.10;99.90;;;;;;951939;148;27433;-82
2023/12/05 10:37:16;;;;;;;3.03;2.37;;;9.20;99.90;;;;;;948051;148;27359;-82
2023/12/05 10:39:42;;;;;;;2.67;1.97;;;9.20;99.90;;;;;;946233;148;27655;-82
2023/12/05 10:42:08;;;;;;;1.50;1.40;;;9.30;99.90;;;;;;947972;148;27367;-82
2023/12/05 10:44:38;;;;;;;3.50;1.57;;;9.40;99.90;;;;;;947424;148;27316;-82
2023/12/05 10:47:04;;;;;;;1.67;1.50;;;9.40;99.90;;;;;;948126;148;27391;-81
2023/12/05 10:49:31;;;;;;;1.90;1.43;;;9.50;99.90;;;;;;950280;148;27299;-81
2023/12/05 10:51:58;;;;;;;1.83;1.57;;;9.60;99.90;;;;;;949562;147;27252;-80
2023/12/05 10:54:24;;;;;;;1.27;1.17;;;9.60;99.90;;;;;;951395;148;27388;-81
2023/12/05 10:56:59;;;;;;;1.40;1.23;;;9.70;99.90;;;;;;950957;148;27349;-80
2023/12/05 10:59:29;;;;;;;2.37;1.30;;;9.80;99.90;;;;;;950731;148;27398;-81
2023/12/05 11:01:58;;;;;;;2.20;2.00;;;9.90;99.90;;;;;;951283;148;27866;-80
2023/12/05 11:04:25;;;;;;;2.57;1.87;;;9.90;99.90;;;;;;950658;148;27472;-79
2023/12/05 11:06:54;;;;;;;2.63;2.17;;;9.90;99.90;;;;;;951251;148;27428;-79
2023/12/05 11:09:18;;;;;;;3.83;2.40;;;10.00;99.90;;;;;;933662;151;27377;-79
2023/12/05 11:11:44;;;;;;;2.47;2.27;;;10.00;99.90;;;;;;945159;148;27948;-79
2023/12/05 11:14:11;;;;;;;2.20;2.00;;;10.00;99.90;;;;;;938769;149;27276;-81
2023/12/05 11:16:39;;;;;;;2.23;1.63;;;10.10;99.90;;;;;;941289;149;27337;-79
2023/12/05 11:19:08;;;;;;;1.07;0.97;;;10.10;99.90;;;;;;904614;153;27350;-79
2023/12/05 11:21:49;;;;;;;3.00;1.23;;;10.10;99.90;;;;;;901865;153;27527;-79
2023/12/05 11:24:15;;;;;;;2.50;1.10;;;10.10;99.90;;;;;;937897;149;27350;-80
2023/12/05 11:27:07;;;;;;;2.13;1.47;;;10.10;99.90;;;;;;938462;150;27332;-82
2023/12/05 11:29:57;;;;;;;1.63;1.30;;;10.10;99.90;;;;;;939127;150;27436;-86
2023/12/05 11:32:48;;;;;;;1.13;1.00;;;10.10;99.90;;;;;;937701;149;27463;-87
2023/12/05 11:35:24;;;;;;;2.63;1.20;;;10.20;99.90;;;;;;939916;149;27348;-86
2023/12/05 11:38:02;;;;;;;1.27;1.17;;;10.20;99.90;;;;;;939333;149;27274;-86
2023/12/05 11:40:29;;;;;;;1.00;0.90;;;10.30;99.90;;;;;;921773;152;27371;-83
2023/12/05 11:43:05;;;;;;;1.00;0.93;;;10.30;99.90;;;;;;916245;153;27383;-87
2023/12/05 11:45:31;;;;;;;1.90;1.27;;;10.40;99.90;;;;;;917013;153;27388;-86
2023/12/05 11:48:00;;;;;;;1.33;1.20;;;10.50;99.90;;;;;;938439;150;27740;-85
2023/12/05 11:50:27;;;;;;;2.83;1.17;;;10.50;99.90;;;;;;938544;149;27359;-86
2023/12/05 11:52:53;;;;;;;1.30;1.20;;;10.60;99.90;;;;;;925901;152;27333;-86
2023/12/05 11:55:22;;;;;;;2.13;1.70;;;10.60;99.90;;;;;;930547;151;27378;-85
2023/12/05 11:57:46;;;;;;;0.93;0.80;;;10.70;99.90;;;;;;905040;153;27353;-84
2023/12/05 12:00:13;;;;;;;3.37;1.40;;;10.70;99.90;;;;;;939255;149;27338;-84
2023/12/05 12:02:44;;;;;;;1.63;1.10;;;10.70;99.90;;;;;;938735;149;27419;-85
2023/12/05 12:05:12;;;;;;;0.90;0.90;;;10.80;99.90;;;;;;932322;151;28803;-85
2023/12/05 12:07:49;;;;;;;0.90;0.90;;;10.70;99.90;;;;;;932844;152;27420;-85
2023/12/05 12:10:14;;;;;;;1.77;1.10;;;10.80;99.90;;;;;;932946;151;27800;-85
2023/12/05 12:12:40;;;;;;;1.20;1.00;;;10.70;99.90;;;;;;942775;148;27505;-85
2023/12/05 12:15:07;;;;;;;1.00;1.00;;;10.70;99.90;;;;;;946229;150;27816;-85
2023/12/05 12:17:34;;;;;;;1.70;1.10;;;10.70;99.90;;;;;;946294;150;27288;-85
2023/12/05 12:20:00;;;;;;;1.93;1.20;;;10.70;99.90;;;;;;945909;150;27286;-85
2023/12/05 12:22:27;;;;;;;1.47;1.00;;;10.70;99.90;;;;;;946131;149;27750;-83
2023/12/05 12:24:53;;;;;;;0.90;0.87;;;10.70;99.90;;;;;;931924;151;27413;-85
2023/12/05 12:27:21;;;;;;;1.00;0.90;;;10.70;99.90;;;;;;927836;152;27455;-84
2023/12/05 12:29:53;;;;;;;1.33;1.10;;;10.70;99.90;;;;;;946206;150;27239;-84
2023/12/05 12:32:19;;;;;;;1.10;0.90;;;10.70;99.90;;;;;;946610;150;27299;-85
2023/12/05 12:34:46;;;;;;;1.00;1.00;;;10.70;99.90;;;;;;946577;150;27366;-81
2023/12/05 12:37:13;;;;;;;1.47;1.10;;;10.70;99.90;;;;;;916531;151;27310;-81
2023/12/05 12:39:43;;;;;;;1.10;0.80;;;10.70;99.90;;;;;;914966;151;27347;-80
2023/12/05 12:42:07;;;;;;;2.00;1.00;;;10.60;99.90;;;;;;946228;150;27320;-81
2023/12/05 12:44:32;;;;;;;1.30;0.97;;;10.60;99.90;;;;;;943931;149;27448;-81
2023/12/05 12:46:59;;;;;;;0.73;0.63;;;10.60;99.90;;;;;;946344;149;27337;-80